sensor_id;sensor_type;location;lat;lon;timestamp;pressure;altitude;pressure_sealevel;temperature;humidity
12468;BME280;57850;52.922;6.256;2023-07-22T00:01:39;101378.88;;;16.91;100.00
12468;BME280;57850;52.922;6.256;2023-07-22T00:04:07;101375.91;;;16.97;100.00
12468;BME280;57850;52.922;6.256;2023-07-22T00:06:33;101375.44;;;16.89;100.00
12468;BME280;57850;52.922;6.256;2023-07-22T00:09:00;101379.09;;;16.86;100.00
12468;BME280;57850;52.922;6.256;2023-07-22T00:11:27;101380.53;;;16.76;100.00
12468;BME280;57850;52.922;6.256;2023-07-22T00:13:53;101390.13;;;17.10;100.00
12468;BME280;57850;52.922;6.256;2023-07-22T00:16:20;101429.44;;;17.14;100.00
12468;BME280;57850;52.922;6.256;2023-07-22T00:18:47;101446.09;;;16.82;100.00
12468;BME280;57850;52.922;6.256;2023-07-22T00:21:16;101437.28;;;17.16;100.00
12468;BME280;57850;52.922;6.256;2023-07-22T00:23:42;101458.84;;;17.07;100.00
12468;BME280;57850;52.922;6.256;2023-07-22T00:26:11;101470.56;;;17.01;100.00
12468;BME280;57850;52.922;6.256;2023-07-22T00:28:37;101461.97;;;16.98;100.00
12468;BME280;57850;52.922;6.256;2023-07-22T00:31:04;101451.88;;;17.06;100.00
12468;BME280;57850;52.922;6.256;2023-07-22T00:33:31;101436.09;;;16.89;100.00
12468;BME280;57850;52.922;6.256;2023-07-22T00:35:58;101446.56;;;16.73;100.00
12468;BME280;57850;52.922;6.256;2023-07-22T00:38:26;101416.44;;;16.79;100.00
12468;BME280;57850;52.922;6.256;2023-07-22T00:40:53;101410.31;;;16.78;100.00
12468;BME280;57850;52.922;6.256;2023-07-22T00:43:20;101409.66;;;16.90;100.00
12468;BME280;57850;52.922;6.256;2023-07-22T00:45:46;101399.50;;;16.83;100.00
12468;BME280;57850;52.922;6.256;2023-07-22T00:48:13;101415.09;;;16.87;100.00
12468;BME280;57850;52.922;6.256;2023-07-22T00:50:41;101419.72;;;17.15;100.00
12468;BME280;57850;52.922;6.256;2023-07-22T00:53:08;101439.97;;;17.14;100.00
12468;BME280;57850;52.922;6.256;2023-07-22T00:55:38;101440.69;;;17.01;100.00
12468;BME280;57850;52.922;6.256;2023-07-22T00:58:05;101436.72;;;16.94;100.00
12468;BME280;57850;52.922;6.256;2023-07-22T01:00:32;101430.75;;;16.90;100.00
12468;BME280;57850;52.922;6.256;2023-07-22T01:02:58;101430.91;;;16.87;100.00
12468;BME280;57850;52.922;6.256;2023-07-22T01:05:26;101430.66;;;16.92;100.00
12468;BME280;57850;52.922;6.256;2023-07-22T01:07:53;101430.38;;;16.64;100.00
12468;BME280;57850;52.922;6.256;2023-07-22T01:10:21;101412.41;;;16.54;100.00
12468;BME280;57850;52.922;6.256;2023-07-22T01:12:49;101418.78;;;16.50;100.00
12468;BME280;57850;52.922;6.256;2023-07-22T01:15:16;101406.66;;;16.29;100.00
12468;BME280;57850;52.922;6.256;2023-07-22T01:17:43;101397.25;;;16.25;100.00
12468;BME280;57850;52.922;6.256;2023-07-22T01:20:11;101384.84;;;16.27;100.00
12468;BME280;57850;52.922;6.256;2023-07-22T01:22:39;101380.28;;;16.31;100.00
12468;BME280;57850;52.922;6.256;2023-07-22T01:25:09;101393.34;;;16.49;100.00
12468;BME280;57850;52.922;6.256;2023-07-22T01:27:36;101411.47;;;16.38;100.00
12468;BME280;57850;52.922;6.256;2023-07-22T01:30:04;101391.34;;;16.37;100.00
12468;BME280;57850;52.922;6.256;2023-07-22T01:32:32;101380.66;;;16.23;100.00
12468;BME280;57850;52.922;6.256;2023-07-22T01:34:58;101367.97;;;16.14;100.00
12468;BME280;57850;52.922;6.256;2023-07-22T01:37:25;101364.56;;;16.12;100.00
12468;BME280;57850;52.922;6.256;2023-07-22T01:39:51;101364.69;;;15.92;100.00
12468;BME280;57850;52.922;6.256;2023-07-22T01:42:19;101362.94;;;16.10;100.00
12468;BME280;57850;52.922;6.256;2023-07-22T01:44:46;101372.84;;;16.04;100.00
12468;BME280;57850;52.922;6.256;2023-07-22T01:47:12;101380.78;;;15.86;100.00
12468;BME280;57850;52.922;6.256;2023-07-22T01:49:39;101368.41;;;15.71;100.00
12468;BME280;57850;52.922;6.256;2023-07-22T01:52:06;101361.81;;;15.62;100.00
12468;BME280;57850;52.922;6.256;2023-07-22T01:54:33;101360.66;;;15.68;100.00
12468;BME280;57850;52.922;6.256;2023-07-22T01:56:59;101352.63;;;16.05;100.00
12468;BME280;57850;52.922;6.256;2023-07-22T01:59:27;101371.69;;;16.27;100.00
12468;BME280;57850;52.922;6.256;2023-07-22T02:01:54;101382.69;;;16.18;100.00
12468;BME280;57850;52.922;6.256;2023-07-22T02:04:20;101378.97;;;16.05;100.00
12468;BME280;57850;52.922;6.256;2023-07-22T02:06:47;101401.19;;;15.99;100.00
12468;BME280;57850;52.922;6.256;2023-07-22T02:09:14;101411.75;;;15.81;100.00
12468;BME280;57850;52.922;6.256;2023-07-22T02:11:41;101395.88;;;15.46;100.00
12468;BME280;57850;52.922;6.256;2023-07-22T02:14:08;101391.25;;;15.51;100.00
12468;BME280;57850;52.922;6.256;2023-07-22T02:16:36;101367.94;;;15.80;100.00
12468;BME280;57850;52.922;6.256;2023-07-22T02:19:03;101376.47;;;16.02;100.00
12468;BME280;57850;52.922;6.256;2023-07-22T02:21:30;101400.00;;;16.05;100.00
12468;BME280;57850;52.922;6.256;2023-07-22T02:23:56;101401.78;;;16.04;100.00
12468;BME280;57850;52.922;6.256;2023-07-22T02:26:23;101383.00;;;16.12;100.00
12468;BME280;57850;52.922;6.256;2023-07-22T02:28:49;101383.16;;;16.09;100.00
12468;BME280;57850;52.922;6.256;2023-07-22T02:31:16;101379.50;;;16.12;100.00
12468;BME280;57850;52.922;6.256;2023-07-22T02:33:44;101381.75;;;16.02;100.00
12468;BME280;57850;52.922;6.256;2023-07-22T02:36:12;101377.19;;;16.05;100.00
12468;BME280;57850;52.922;6.256;2023-07-22T02:38:38;101378.19;;;16.03;100.00
12468;BME280;57850;52.922;6.256;2023-07-22T02:41:05;101346.13;;;15.78;100.00
12468;BME280;57850;52.922;6.256;2023-07-22T02:43:33;101341.88;;;15.92;100.00
12468;BME280;57850;52.922;6.256;2023-07-22T02:46:00;101339.78;;;15.99;100.00
12468;BME280;57850;52.922;6.256;2023-07-22T02:48:27;101346.66;;;16.01;100.00
12468;BME280;57850;52.922;6.256;2023-07-22T02:50:55;101350.31;;;15.99;100.00
12468;BME280;57850;52.922;6.256;2023-07-22T02:53:22;101350.59;;;16.27;100.00
12468;BME280;57850;52.922;6.256;2023-07-22T02:55:48;101361.31;;;16.24;100.00
12468;BME280;57850;52.922;6.256;2023-07-22T02:58:15;101369.50;;;16.18;100.00
12468;BME280;57850;52.922;6.256;2023-07-22T03:00:42;101358.28;;;16.15;100.00
12468;BME280;57850;52.922;6.256;2023-07-22T03:03:09;101360.53;;;16.22;100.00
12468;BME280;57850;52.922;6.256;2023-07-22T03:05:35;101362.94;;;16.10;100.00
12468;BME280;57850;52.922;6.256;2023-07-22T03:08:04;101363.78;;;16.10;100.00
12468;BME280;57850;52.922;6.256;2023-07-22T03:10:32;101348.94;;;16.09;100.00
12468;BME280;57850;52.922;6.256;2023-07-22T03:12:59;101354.88;;;15.78;100.00
12468;BME280;57850;52.922;6.256;2023-07-22T03:15:29;101323.13;;;15.45;100.00
12468;BME280;57850;52.922;6.256;2023-07-22T03:17:56;101293.34;;;15.28;100.00
12468;BME280;57850;52.922;6.256;2023-07-22T03:20:24;101285.84;;;15.56;100.00
12468;BME280;57850;52.922;6.256;2023-07-22T03:22:51;101316.16;;;15.80;100.00
12468;BME280;57850;52.922;6.256;2023-07-22T03:25:19;101332.09;;;15.94;100.00
12468;BME280;57850;52.922;6.256;2023-07-22T03:27:46;101355.88;;;16.10;100.00
12468;BME280;57850;52.922;6.256;2023-07-22T03:30:14;101382.00;;;16.32;100.00
12468;BME280;57850;52.922;6.256;2023-07-22T03:32:42;101368.91;;;16.13;100.00
12468;BME280;57850;52.922;6.256;2023-07-22T03:35:09;101382.41;;;15.88;100.00
12468;BME280;57850;52.922;6.256;2023-07-22T03:37:37;101370.66;;;15.95;100.00
12468;BME280;57850;52.922;6.256;2023-07-22T03:40:05;101367.19;;;15.95;100.00
12468;BME280;57850;52.922;6.256;2023-07-22T03:42:38;101363.31;;;15.85;100.00
12468;BME280;57850;52.922;6.256;2023-07-22T03:45:06;101369.19;;;16.07;100.00
12468;BME280;57850;52.922;6.256;2023-07-22T03:47:33;101383.97;;;15.92;100.00
12468;BME280;57850;52.922;6.256;2023-07-22T03:50:00;101364.75;;;15.73;100.00
12468;BME280;57850;52.922;6.256;2023-07-22T03:52:26;101352.88;;;16.00;100.00
12468;BME280;57850;52.922;6.256;2023-07-22T03:54:53;101364.63;;;16.28;100.00
12468;BME280;57850;52.922;6.256;2023-07-22T03:57:25;101368.03;;;16.30;100.00
12468;BME280;57850;52.922;6.256;2023-07-22T03:59:53;101368.50;;;16.55;100.00
12468;BME280;57850;52.922;6.256;2023-07-22T04:02:19;101380.94;;;16.51;100.00
12468;BME280;57850;52.922;6.256;2023-07-22T04:04:46;101365.09;;;16.19;100.00
12468;BME280;57850;52.922;6.256;2023-07-22T04:07:13;101357.88;;;16.39;100.00
12468;BME280;57850;52.922;6.256;2023-07-22T04:09:40;101363.56;;;16.32;100.00
12468;BME280;57850;52.922;6.256;2023-07-22T04:12:07;101363.41;;;16.35;100.00
12468;BME280;57850;52.922;6.256;2023-07-22T04:14:34;101357.22;;;16.51;100.00
12468;BME280;57850;52.922;6.256;2023-07-22T04:17:02;101345.34;;;16.44;100.00
12468;BME280;57850;52.922;6.256;2023-07-22T04:19:29;101346.25;;;16.43;100.00
12468;BME280;57850;52.922;6.256;2023-07-22T04:21:56;101334.34;;;16.02;100.00
12468;BME280;57850;52.922;6.256;2023-07-22T04:24:22;101304.72;;;16.16;100.00
12468;BME280;57850;52.922;6.256;2023-07-22T04:26:50;101289.28;;;16.25;100.00
12468;BME280;57850;52.922;6.256;2023-07-22T04:29:17;101285.13;;;15.87;100.00
12468;BME280;57850;52.922;6.256;2023-07-22T04:31:45;101249.09;;;16.04;100.00
12468;BME280;57850;52.922;6.256;2023-07-22T04:34:13;101265.63;;;16.41;100.00
12468;BME280;57850;52.922;6.256;2023-07-22T04:36:39;101248.94;;;16.07;100.00
12468;BME280;57850;52.922;6.256;2023-07-22T04:39:06;101220.00;;;16.07;100.00
12468;BME280;57850;52.922;6.256;2023-07-22T04:41:33;101222.75;;;16.22;100.00
12468;BME280;57850;52.922;6.256;2023-07-22T04:43:59;101207.69;;;16.08;100.00
12468;BME280;57850;52.922;6.256;2023-07-22T04:46:26;101206.31;;;16.01;100.00
12468;BME280;57850;52.922;6.256;2023-07-22T04:48:54;101188.53;;;16.22;100.00
12468;BME280;57850;52.922;6.256;2023-07-22T04:51:22;101168.78;;;15.97;100.00
12468;BME280;57850;52.922;6.256;2023-07-22T04:53:48;101150.59;;;15.93;100.00
12468;BME280;57850;52.922;6.256;2023-07-22T04:56:15;101108.50;;;16.08;100.00
12468;BME280;57850;52.922;6.256;2023-07-22T04:58:42;101111.72;;;15.98;100.00
12468;BME280;57850;52.922;6.256;2023-07-22T05:01:10;101074.63;;;16.18;100.00
12468;BME280;57850;52.922;6.256;2023-07-22T05:03:37;101050.47;;;16.10;100.00
12468;BME280;57850;52.922;6.256;2023-07-22T05:06:03;101012.34;;;16.17;100.00
12468;BME280;57850;52.922;6.256;2023-07-22T05:08:31;100996.75;;;16.14;100.00
12468;BME280;57850;52.922;6.256;2023-07-22T05:10:58;100951.56;;;16.22;100.00
12468;BME280;57850;52.922;6.256;2023-07-22T05:13:24;100928.84;;;16.35;100.00
12468;BME280;57850;52.922;6.256;2023-07-22T05:15:51;100916.09;;;16.13;100.00
12468;BME280;57850;52.922;6.256;2023-07-22T05:18:18;100870.19;;;16.17;100.00
12468;BME280;57850;52.922;6.256;2023-07-22T05:20:44;100860.44;;;16.19;100.00
12468;BME280;57850;52.922;6.256;2023-07-22T05:23:11;100840.97;;;16.36;100.00
12468;BME280;57850;52.922;6.256;2023-07-22T05:25:39;100838.78;;;16.58;100.00
12468;BME280;57850;52.922;6.256;2023-07-22T05:28:06;100843.75;;;16.77;100.00
12468;BME280;57850;52.922;6.256;2023-07-22T05:30:32;100872.19;;;16.72;100.00
12468;BME280;57850;52.922;6.256;2023-07-22T05:32:59;100883.19;;;16.64;100.00
12468;BME280;57850;52.922;6.256;2023-07-22T05:35:25;100878.09;;;16.61;100.00
12468;BME280;57850;52.922;6.256;2023-07-22T05:37:52;100878.47;;;16.55;100.00
12468;BME280;57850;52.922;6.256;2023-07-22T05:40:19;100856.19;;;16.75;100.00
12468;BME280;57850;52.922;6.256;2023-07-22T05:42:46;100837.34;;;16.95;100.00
12468;BME280;57850;52.922;6.256;2023-07-22T05:45:13;100865.97;;;16.87;100.00
12468;BME280;57850;52.922;6.256;2023-07-22T05:47:41;100845.66;;;16.75;100.00
12468;BME280;57850;52.922;6.256;2023-07-22T05:50:08;100844.50;;;16.93;100.00
12468;BME280;57850;52.922;6.256;2023-07-22T05:52:35;100823.88;;;16.85;100.00
12468;BME280;57850;52.922;6.256;2023-07-22T05:55:02;100798.97;;;16.91;100.00
12468;BME280;57850;52.922;6.256;2023-07-22T05:57:28;100809.50;;;16.91;100.00
12468;BME280;57850;52.922;6.256;2023-07-22T05:59:56;100791.66;;;17.08;100.00
12468;BME280;57850;52.922;6.256;2023-07-22T06:02:23;100797.72;;;17.23;100.00
12468;BME280;57850;52.922;6.256;2023-07-22T06:04:49;100832.47;;;17.30;100.00
12468;BME280;57850;52.922;6.256;2023-07-22T06:07:16;100829.94;;;17.28;100.00
12468;BME280;57850;52.922;6.256;2023-07-22T06:09:43;100828.13;;;17.02;100.00
12468;BME280;57850;52.922;6.256;2023-07-22T06:12:10;100823.03;;;17.40;100.00
12468;BME280;57850;52.922;6.256;2023-07-22T06:14:37;100833.59;;;17.40;100.00
12468;BME280;57850;52.922;6.256;2023-07-22T06:17:05;100833.72;;;17.24;100.00
12468;BME280;57850;52.922;6.256;2023-07-22T06:19:31;100855.34;;;17.29;100.00
12468;BME280;57850;52.922;6.256;2023-07-22T06:21:58;100836.03;;;17.43;100.00
12468;BME280;57850;52.922;6.256;2023-07-22T06:24:25;100821.00;;;17.17;100.00
12468;BME280;57850;52.922;6.256;2023-07-22T06:26:51;100807.00;;;17.43;100.00
12468;BME280;57850;52.922;6.256;2023-07-22T06:29:18;100803.56;;;17.82;100.00
12468;BME280;57850;52.922;6.256;2023-07-22T06:31:45;100876.19;;;17.34;100.00
12468;BME280;57850;52.922;6.256;2023-07-22T06:34:13;100864.97;;;17.30;100.00
12468;BME280;57850;52.922;6.256;2023-07-22T06:36:39;100865.25;;;17.40;100.00
12468;BME280;57850;52.922;6.256;2023-07-22T06:39:06;100900.31;;;17.28;100.00
12468;BME280;57850;52.922;6.256;2023-07-22T06:41:32;100901.69;;;17.61;100.00
12468;BME280;57850;52.922;6.256;2023-07-22T06:43:59;100947.16;;;17.79;100.00
12468;BME280;57850;52.922;6.256;2023-07-22T06:46:26;100946.16;;;17.67;100.00
12468;BME280;57850;52.922;6.256;2023-07-22T06:48:52;100981.88;;;18.00;100.00
12468;BME280;57850;52.922;6.256;2023-07-22T06:51:20;101010.22;;;17.84;100.00
12468;BME280;57850;52.922;6.256;2023-07-22T06:53:47;101026.16;;;17.82;100.00
12468;BME280;57850;52.922;6.256;2023-07-22T06:56:14;101024.47;;;18.08;100.00
12468;BME280;57850;52.922;6.256;2023-07-22T06:58:40;101075.31;;;18.11;100.00
12468;BME280;57850;52.922;6.256;2023-07-22T07:01:07;101085.75;;;18.27;100.00
12468;BME280;57850;52.922;6.256;2023-07-22T07:03:33;101093.81;;;18.11;100.00
12468;BME280;57850;52.922;6.256;2023-07-22T07:06:00;101085.81;;;18.40;100.00
12468;BME280;57850;52.922;6.256;2023-07-22T07:08:28;101098.16;;;18.53;100.00
12468;BME280;57850;52.922;6.256;2023-07-22T07:10:55;101107.41;;;18.46;100.00
12468;BME280;57850;52.922;6.256;2023-07-22T07:13:22;101130.19;;;18.76;100.00
12468;BME280;57850;52.922;6.256;2023-07-22T07:15:49;101134.75;;;18.45;100.00
12468;BME280;57850;52.922;6.256;2023-07-22T07:18:15;101147.31;;;18.83;100.00
12468;BME280;57850;52.922;6.256;2023-07-22T07:20:41;101156.78;;;18.60;100.00
12468;BME280;57850;52.922;6.256;2023-07-22T07:23:08;101141.31;;;19.20;100.00
12468;BME280;57850;52.922;6.256;2023-07-22T07:25:36;101173.03;;;19.07;100.00
12468;BME280;57850;52.922;6.256;2023-07-22T07:28:03;101202.59;;;19.66;100.00
12468;BME280;57850;52.922;6.256;2023-07-22T07:30:31;101220.72;;;19.72;100.00
12468;BME280;57850;52.922;6.256;2023-07-22T07:32:57;101238.41;;;19.32;100.00
12468;BME280;57850;52.922;6.256;2023-07-22T07:35:24;101216.75;;;19.52;100.00
12468;BME280;57850;52.922;6.256;2023-07-22T07:37:51;101245.06;;;19.64;100.00
12468;BME280;57850;52.922;6.256;2023-07-22T07:40:17;101266.63;;;19.98;100.00
12468;BME280;57850;52.922;6.256;2023-07-22T07:42:46;101264.19;;;19.55;100.00
12468;BME280;57850;52.922;6.256;2023-07-22T07:45:12;101237.34;;;19.99;100.00
12468;BME280;57850;52.922;6.256;2023-07-22T07:47:39;101265.78;;;20.35;100.00
12468;BME280;57850;52.922;6.256;2023-07-22T07:50:07;101309.53;;;19.51;100.00
12468;BME280;57850;52.922;6.256;2023-07-22T07:52:33;101305.28;;;19.88;100.00
12468;BME280;57850;52.922;6.256;2023-07-22T07:55:00;101308.78;;;20.01;100.00
12468;BME280;57850;52.922;6.256;2023-07-22T07:57:27;101296.28;;;19.51;100.00
12468;BME280;57850;52.922;6.256;2023-07-22T07:59:55;101269.75;;;19.77;100.00
12468;BME280;57850;52.922;6.256;2023-07-22T08:02:21;101269.34;;;19.84;100.00
12468;BME280;57850;52.922;6.256;2023-07-22T08:04:48;101309.59;;;19.76;100.00
12468;BME280;57850;52.922;6.256;2023-07-22T08:07:15;101266.84;;;20.07;100.00
12468;BME280;57850;52.922;6.256;2023-07-22T08:09:42;101332.28;;;19.93;100.00
12468;BME280;57850;52.922;6.256;2023-07-22T08:12:09;101322.31;;;19.84;100.00
12468;BME280;57850;52.922;6.256;2023-07-22T08:14:35;101302.56;;;19.62;100.00
12468;BME280;57850;52.922;6.256;2023-07-22T08:17:04;101264.78;;;19.73;100.00
12468;BME280;57850;52.922;6.256;2023-07-22T08:19:31;101235.06;;;19.43;100.00
12468;BME280;57850;52.922;6.256;2023-07-22T08:21:57;101152.28;;;19.14;100.00
12468;BME280;57850;52.922;6.256;2023-07-22T08:24:24;101092.41;;;19.13;100.00
12468;BME280;57850;52.922;6.256;2023-07-22T08:26:51;101055.38;;;19.13;100.00
12468;BME280;57850;52.922;6.256;2023-07-22T08:29:17;101027.00;;;19.27;100.00
12468;BME280;57850;52.922;6.256;2023-07-22T08:31:44;100987.09;;;19.31;100.00
12468;BME280;57850;52.922;6.256;2023-07-22T08:34:12;100960.22;;;19.11;100.00
12468;BME280;57850;52.922;6.256;2023-07-22T08:36:38;100974.41;;;18.73;100.00
12468;BME280;57850;52.922;6.256;2023-07-22T08:39:05;100936.41;;;18.61;100.00
12468;BME280;57850;52.922;6.256;2023-07-22T08:41:33;100876.38;;;18.88;100.00
12468;BME280;57850;52.922;6.256;2023-07-22T08:44:00;100915.91;;;18.52;100.00
12468;BME280;57850;52.922;6.256;2023-07-22T08:46:28;100894.78;;;18.77;100.00
12468;BME280;57850;52.922;6.256;2023-07-22T08:48:56;100907.56;;;18.96;100.00
12468;BME280;57850;52.922;6.256;2023-07-22T08:51:26;100903.31;;;19.06;100.00
12468;BME280;57850;52.922;6.256;2023-07-22T08:53:55;100930.59;;;19.19;100.00
12468;BME280;57850;52.922;6.256;2023-07-22T08:56:23;101003.94;;;18.79;100.00
12468;BME280;57850;52.922;6.256;2023-07-22T08:58:51;100932.19;;;19.09;100.00
12468;BME280;57850;52.922;6.256;2023-07-22T09:01:17;100973.84;;;18.67;100.00
12468;BME280;57850;52.922;6.256;2023-07-22T09:03:44;100936.97;;;19.16;100.00
12468;BME280;57850;52.922;6.256;2023-07-22T09:06:13;100970.94;;;19.22;100.00
12468;BME280;57850;52.922;6.256;2023-07-22T09:08:42;100996.31;;;19.25;100.00
12468;BME280;57850;52.922;6.256;2023-07-22T09:11:09;101047.97;;;19.18;100.00
12468;BME280;57850;52.922;6.256;2023-07-22T09:13:35;101084.16;;;19.30;100.00
12468;BME280;57850;52.922;6.256;2023-07-22T09:16:06;101128.41;;;19.28;100.00
12468;BME280;57850;52.922;6.256;2023-07-22T09:18:33;101144.56;;;19.63;100.00
12468;BME280;57850;52.922;6.256;2023-07-22T09:21:00;101164.69;;;19.91;100.00
12468;BME280;57850;52.922;6.256;2023-07-22T09:23:33;101278.06;;;19.46;100.00
12468;BME280;57850;52.922;6.256;2023-07-22T09:26:09;101244.28;;;19.50;100.00
12468;BME280;57850;52.922;6.256;2023-07-22T09:28:54;101288.09;;;19.41;100.00
12468;BME280;57850;52.922;6.256;2023-07-22T09:31:22;101323.63;;;19.37;100.00
12468;BME280;57850;52.922;6.256;2023-07-22T09:33:49;101301.81;;;19.60;100.00
12468;BME280;57850;52.922;6.256;2023-07-22T09:36:16;101297.81;;;19.67;100.00
12468;BME280;57850;52.922;6.256;2023-07-22T09:38:43;101274.94;;;19.66;100.00
12468;BME280;57850;52.922;6.256;2023-07-22T09:41:11;101250.22;;;19.53;100.00
12468;BME280;57850;52.922;6.256;2023-07-22T09:43:39;101197.28;;;19.53;100.00
12468;BME280;57850;52.922;6.256;2023-07-22T09:46:07;101189.34;;;19.66;100.00
12468;BME280;57850;52.922;6.256;2023-07-22T09:48:39;101148.16;;;19.49;100.00
12468;BME280;57850;52.922;6.256;2023-07-22T09:51:11;101122.53;;;18.98;100.00
12468;BME280;57850;52.922;6.256;2023-07-22T09:53:38;101105.00;;;18.83;100.00
12468;BME280;57850;52.922;6.256;2023-07-22T09:56:11;101043.22;;;18.71;100.00
12468;BME280;57850;52.922;6.256;2023-07-22T09:58:38;101037.31;;;18.67;100.00
12468;BME280;57850;52.922;6.256;2023-07-22T10:01:06;101026.19;;;18.62;100.00
12468;BME280;57850;52.922;6.256;2023-07-22T10:03:35;101011.41;;;18.73;100.00
12468;BME280;57850;52.922;6.256;2023-07-22T10:06:05;101005.09;;;18.88;100.00
12468;BME280;57850;52.922;6.256;2023-07-22T10:08:34;101002.88;;;19.07;100.00
12468;BME280;57850;52.922;6.256;2023-07-22T10:11:03;101022.78;;;19.00;100.00
12468;BME280;57850;52.922;6.256;2023-07-22T10:13:33;101044.41;;;18.80;100.00
12468;BME280;57850;52.922;6.256;2023-07-22T10:16:00;101012.41;;;18.97;100.00
12468;BME280;57850;52.922;6.256;2023-07-22T10:18:27;100986.88;;;18.96;100.00
12468;BME280;57850;52.922;6.256;2023-07-22T10:20:55;100983.06;;;18.75;100.00
12468;BME280;57850;52.922;6.256;2023-07-22T10:23:25;100927.56;;;18.75;100.00
12468;BME280;57850;52.922;6.256;2023-07-22T10:25:52;100893.09;;;19.01;100.00
12468;BME280;57850;52.922;6.256;2023-07-22T10:28:19;100916.34;;;18.84;100.00
12468;BME280;57850;52.922;6.256;2023-07-22T10:30:48;100892.47;;;18.73;100.00
12468;BME280;57850;52.922;6.256;2023-07-22T10:33:16;100821.19;;;18.71;100.00
12468;BME280;57850;52.922;6.256;2023-07-22T10:35:43;100758.19;;;18.14;100.00
12468;BME280;57850;52.922;6.256;2023-07-22T10:38:12;100658.41;;;18.43;100.00
12468;BME280;57850;52.922;6.256;2023-07-22T10:40:46;100627.56;;;18.44;100.00
12468;BME280;57850;52.922;6.256;2023-07-22T10:43:15;100650.84;;;18.26;100.00
12468;BME280;57850;52.922;6.256;2023-07-22T10:45:49;100630.78;;;18.11;100.00
12468;BME280;57850;52.922;6.256;2023-07-22T10:48:17;100575.81;;;18.29;100.00
12468;BME280;57850;52.922;6.256;2023-07-22T10:50:45;100583.25;;;18.47;100.00
12468;BME280;57850;52.922;6.256;2023-07-22T10:53:14;100616.53;;;18.62;100.00
12468;BME280;57850;52.922;6.256;2023-07-22T10:56:06;100610.72;;;18.81;100.00
12468;BME280;57850;52.922;6.256;2023-07-22T10:58:33;100602.00;;;18.92;100.00
12468;BME280;57850;52.922;6.256;2023-07-22T11:01:22;100645.16;;;18.68;100.00
12468;BME280;57850;52.922;6.256;2023-07-22T11:04:08;100587.31;;;18.88;100.00
12468;BME280;57850;52.922;6.256;2023-07-22T11:06:37;100550.09;;;19.02;100.00
12468;BME280;57850;52.922;6.256;2023-07-22T11:09:05;100560.50;;;18.81;100.00
12468;BME280;57850;52.922;6.256;2023-07-22T11:11:39;100549.66;;;18.73;100.00
12468;BME280;57850;52.922;6.256;2023-07-22T11:14:15;100531.31;;;18.59;100.00
12468;BME280;57850;52.922;6.256;2023-07-22T11:16:42;100527.31;;;18.77;100.00
12468;BME280;57850;52.922;6.256;2023-07-22T11:19:12;100512.72;;;18.60;100.00
12468;BME280;57850;52.922;6.256;2023-07-22T11:21:39;100513.91;;;18.56;100.00
12468;BME280;57850;52.922;6.256;2023-07-22T11:24:06;100510.56;;;18.42;100.00
12468;BME280;57850;52.922;6.256;2023-07-22T11:26:33;100535.13;;;18.31;100.00
12468;BME280;57850;52.922;6.256;2023-07-22T11:29:00;100516.19;;;18.37;100.00
12468;BME280;57850;52.922;6.256;2023-07-22T11:31:31;100490.00;;;18.34;100.00
12468;BME280;57850;52.922;6.256;2023-07-22T11:33:58;100448.34;;;18.38;100.00
12468;BME280;57850;52.922;6.256;2023-07-22T11:36:26;100374.38;;;18.38;100.00
12468;BME280;57850;52.922;6.256;2023-07-22T11:38:52;100393.44;;;18.30;100.00
12468;BME280;57850;52.922;6.256;2023-07-22T11:41:20;100443.66;;;18.06;100.00
12468;BME280;57850;52.922;6.256;2023-07-22T11:43:47;100431.53;;;18.04;100.00
12468;BME280;57850;52.922;6.256;2023-07-22T11:46:14;100405.31;;;18.25;100.00
12468;BME280;57850;52.922;6.256;2023-07-22T11:48:49;100394.19;;;18.08;100.00
12468;BME280;57850;52.922;6.256;2023-07-22T11:51:17;100336.88;;;18.33;100.00
12468;BME280;57850;52.922;6.256;2023-07-22T11:53:47;100348.06;;;18.36;100.00
12468;BME280;57850;52.922;6.256;2023-07-22T11:56:18;100310.53;;;18.55;100.00
12468;BME280;57850;52.922;6.256;2023-07-22T11:58:49;100342.69;;;18.49;100.00
12468;BME280;57850;52.922;6.256;2023-07-22T12:01:16;100345.25;;;18.15;100.00
12468;BME280;57850;52.922;6.256;2023-07-22T12:03:43;100284.56;;;18.49;100.00
12468;BME280;57850;52.922;6.256;2023-07-22T12:06:10;100250.84;;;18.52;100.00
12468;BME280;57850;52.922;6.256;2023-07-22T12:08:43;100247.31;;;18.18;100.00
12468;BME280;57850;52.922;6.256;2023-07-22T12:11:17;100211.16;;;18.08;100.00
12468;BME280;57850;52.922;6.256;2023-07-22T12:13:44;100120.66;;;18.17;100.00
12468;BME280;57850;52.922;6.256;2023-07-22T12:16:21;100090.78;;;18.16;100.00
12468;BME280;57850;52.922;6.256;2023-07-22T12:18:54;100051.50;;;18.34;100.00
12468;BME280;57850;52.922;6.256;2023-07-22T12:21:21;100056.50;;;18.59;100.00
12468;BME280;57850;52.922;6.256;2023-07-22T12:23:47;100067.44;;;18.44;100.00
12468;BME280;57850;52.922;6.256;2023-07-22T12:26:14;100044.78;;;18.30;100.00
12468;BME280;57850;52.922;6.256;2023-07-22T12:28:42;99921.41;;;18.53;100.00
12468;BME280;57850;52.922;6.256;2023-07-22T12:31:09;99932.41;;;18.58;100.00
12468;BME280;57850;52.922;6.256;2023-07-22T12:33:36;99964.72;;;18.82;100.00
12468;BME280;57850;52.922;6.256;2023-07-22T12:36:03;100023.84;;;18.60;100.00
12468;BME280;57850;52.922;6.256;2023-07-22T12:38:30;100083.06;;;18.36;100.00
12468;BME280;57850;52.922;6.256;2023-07-22T12:40:56;100075.94;;;18.58;100.00
12468;BME280;57850;52.922;6.256;2023-07-22T12:43:23;100042.19;;;18.62;100.00